Time;durP1;ratioP1;P1;durP2;ratioP2;P2;SDS_P1;SDS_P2;PMS_P1;PMS_P2;Temp;Humidity;BMP_temperature;BMP_pressure;BME280_temperature;BME280_humidity;BME280_pressure;Samples;Min_cycle;Max_cycle;Signal;HPM_P1;HPM_P2
2022/09/04 00:02:39;;;;;;;1999.90;999.90;;;21.50;99.90;;;;;;5207694;28;20037;-74
2022/09/04 00:05:25;;;;;;;1999.90;999.90;;;21.60;99.90;;;;;;5206070;28;20512;-74
2022/09/04 00:08:07;;;;;;;1999.90;999.90;;;21.40;99.90;;;;;;5207407;28;20055;-72
2022/09/04 00:11:04;;;;;;;1999.90;999.90;;;21.40;99.90;;;;;;5207823;28;20065;-74
2022/09/04 00:13:42;;;;;;;1999.90;999.90;;;21.30;99.90;;;;;;5177442;28;20501;-74
2022/09/04 00:16:18;;;;;;;1999.90;999.90;;;21.40;99.90;;;;;;5207689;28;20421;-74
2022/09/04 00:19:07;;;;;;;1999.90;999.90;;;21.30;99.90;;;;;;5207512;28;20037;-74
2022/09/04 00:22:01;;;;;;;1999.90;999.90;;;21.20;99.90;;;;;;5207430;28;20033;-74
2022/09/04 00:24:49;;;;;;;1999.90;999.90;;;21.30;99.90;;;;;;5205807;28;20036;-73
2022/09/04 00:27:27;;;;;;;1999.90;999.90;;;21.10;99.90;;;;;;5206955;28;20025;-74
2022/09/04 00:30:08;;;;;;;1999.90;999.90;;;21.10;99.90;;;;;;5207063;28;20042;-74
2022/09/04 00:33:03;;;;;;;1999.90;999.90;;;21.00;99.90;;;;;;5206896;28;20116;-74
2022/09/04 00:35:42;;;;;;;1999.90;999.90;;;21.20;99.90;;;;;;5206606;28;20061;-73
2022/09/04 00:38:46;;;;;;;1999.90;999.90;;;21.10;99.90;;;;;;5205493;28;20025;-74
2022/09/04 00:41:31;;;;;;;1999.90;999.90;;;21.10;99.90;;;;;;5206410;28;20033;-74
2022/09/04 00:44:30;;;;;;;1999.90;999.90;;;21.00;99.90;;;;;;5206774;28;20033;-74
2022/09/04 00:47:19;;;;;;;1999.90;999.90;;;21.10;99.90;;;;;;5205232;28;20056;-73
2022/09/04 00:50:08;;;;;;;1999.90;999.90;;;21.10;99.90;;;;;;5206584;28;20426;-74
2022/09/04 00:52:56;;;;;;;1999.90;999.90;;;21.00;99.90;;;;;;5206525;28;20021;-74
2022/09/04 00:55:53;;;;;;;1999.90;999.90;;;21.10;99.90;;;;;;5206419;28;20477;-74
2022/09/04 00:58:30;;;;;;;1999.90;999.90;;;21.20;99.90;;;;;;5202308;28;20061;-73
2022/09/04 01:01:02;;;;;;;1999.90;999.90;;;21.10;99.90;;;;;;5206282;28;20037;-74
2022/09/04 01:04:08;;;;;;;1999.90;999.90;;;21.20;99.90;;;;;;5206243;28;20382;-74
2022/09/04 01:06:51;;;;;;;1999.90;999.90;;;21.10;99.90;;;;;;5206179;28;20037;-74
2022/09/04 01:10:00;;;;;;;1999.90;999.90;;;21.10;99.90;;;;;;5206162;28;20547;-74
2022/09/04 01:12:53;;;;;;;1999.90;999.90;;;21.00;99.90;;;;;;5205868;28;20034;-74
2022/09/04 01:15:36;;;;;;;1999.90;999.90;;;21.00;99.90;;;;;;5206012;28;20370;-73
2022/09/04 01:18:26;;;;;;;1999.90;999.90;;;21.00;99.90;;;;;;5206097;28;20029;-73
2022/09/04 01:21:30;;;;;;;1999.90;999.90;;;21.10;99.90;;;;;;5205912;28;20025;-73
2022/09/04 01:24:17;;;;;;;1999.90;999.90;;;21.00;99.90;;;;;;5205997;28;20061;-72
2022/09/04 01:27:04;;;;;;;1999.90;999.90;;;21.10;99.90;;;;;;5205739;28;20025;-73
2022/09/04 01:29:38;;;;;;;1999.90;999.90;;;20.90;99.90;;;;;;5205812;28;20134;-72
2022/09/04 01:32:29;;;;;;;1999.90;999.90;;;20.90;99.90;;;;;;5205782;28;20538;-73
2022/09/04 01:35:13;;;;;;;1999.90;999.90;;;20.80;99.90;;;;;;5203639;28;20045;-73
2022/09/04 01:37:56;;;;;;;1999.90;999.90;;;20.70;99.90;;;;;;5205776;28;20033;-73
2022/09/04 01:40:32;;;;;;;1999.90;999.90;;;20.60;99.90;;;;;;5205630;28;20029;-73
2022/09/04 01:43:10;;;;;;;1999.90;999.90;;;20.60;99.90;;;;;;5203839;28;20087;-73
2022/09/04 01:46:11;;;;;;;1999.90;999.90;;;20.70;99.90;;;;;;5205632;28;20017;-73
2022/09/04 01:48:54;;;;;;;1999.90;999.90;;;20.70;99.90;;;;;;5205344;28;20056;-73
2022/09/04 01:51:35;;;;;;;1999.90;999.90;;;20.60;99.90;;;;;;5205421;28;20017;-73
2022/09/04 01:54:22;;;;;;;1999.90;999.90;;;20.60;99.90;;;;;;5205553;28;20449;-73
2022/09/04 01:57:26;;;;;;;1999.90;999.90;;;20.70;99.90;;;;;;5205500;28;20038;-74
2022/09/04 02:00:22;;;;;;;1999.90;999.90;;;20.70;99.90;;;;;;5205406;28;20120;-73
2022/09/04 02:03:01;;;;;;;1999.90;999.90;;;20.50;99.90;;;;;;5205510;28;20017;-73
2022/09/04 02:06:00;;;;;;;1999.90;999.90;;;20.70;99.90;;;;;;5205481;28;20033;-72
2022/09/04 02:08:49;;;;;;;1999.90;999.90;;;20.50;99.90;;;;;;5205038;28;20072;-72
2022/09/04 02:11:30;;;;;;;1999.90;999.90;;;20.50;99.90;;;;;;5203101;28;20041;-73
2022/09/04 02:14:19;;;;;;;1999.90;999.90;;;20.40;99.90;;;;;;5203780;28;20120;-73
2022/09/04 02:17:22;;;;;;;1999.90;999.90;;;20.60;99.90;;;;;;5204987;28;20025;-72
2022/09/04 02:20:11;;;;;;;1999.90;999.90;;;20.50;99.90;;;;;;5205081;28;20104;-73
2022/09/04 02:22:53;;;;;;;1999.90;999.90;;;20.70;99.90;;;;;;5205159;28;20032;-72
2022/09/04 02:25:27;;;;;;;1999.90;999.90;;;20.40;99.90;;;;;;5205549;28;20083;-74
2022/09/04 02:28:17;;;;;;;1999.90;999.90;;;20.40;99.90;;;;;;5204054;28;20081;-72
2022/09/04 02:31:04;;;;;;;1999.90;999.90;;;20.70;99.90;;;;;;5205059;28;20029;-73
2022/09/04 02:34:11;;;;;;;1999.90;999.90;;;20.60;99.90;;;;;;5204787;28;20055;-74
2022/09/04 02:36:53;;;;;;;1999.90;999.90;;;20.70;99.90;;;;;;5204957;28;20049;-74
2022/09/04 02:40:10;;;;;;;1999.90;999.90;;;20.70;99.90;;;;;;5204864;28;20425;-73
2022/09/04 02:42:56;;;;;;;1999.90;999.90;;;20.70;99.90;;;;;;5201416;28;20061;-73
2022/09/04 02:45:33;;;;;;;1999.90;999.90;;;20.70;99.90;;;;;;5204965;28;20066;-73
2022/09/04 02:48:30;;;;;;;1999.90;999.90;;;20.70;99.90;;;;;;5203311;28;20059;-73
2022/09/04 02:51:15;;;;;;;1999.90;999.90;;;20.50;99.90;;;;;;5204873;28;20474;-73
2022/09/04 02:54:23;;;;;;;1999.90;999.90;;;20.60;99.90;;;;;;5204912;28;20469;-73
2022/09/04 02:57:03;;;;;;;1999.90;999.90;;;20.40;99.90;;;;;;5204185;28;20049;-74
2022/09/04 02:59:52;;;;;;;1999.90;999.90;;;20.40;99.90;;;;;;5204764;28;20022;-73
2022/09/04 03:02:32;;;;;;;1999.90;999.90;;;20.40;99.90;;;;;;5203411;28;20037;-73
2022/09/04 03:05:17;;;;;;;1999.90;999.90;;;20.30;99.90;;;;;;5204671;28;20095;-73
2022/09/04 03:08:03;;;;;;;1999.90;999.90;;;20.40;99.90;;;;;;5204437;28;20036;-73
2022/09/04 03:10:51;;;;;;;1999.90;999.90;;;20.50;99.90;;;;;;5204634;28;20033;-73
2022/09/04 03:13:35;;;;;;;1999.90;999.90;;;20.40;99.90;;;;;;5203215;28;20038;-73
2022/09/04 03:16:17;;;;;;;1999.90;999.90;;;20.40;99.90;;;;;;5204642;28;20071;-73
2022/09/04 03:19:03;;;;;;;1999.90;999.90;;;20.30;99.90;;;;;;5203360;28;20570;-73
2022/09/04 03:22:08;;;;;;;1999.90;999.90;;;20.40;99.90;;;;;;5204328;28;20108;-73
2022/09/04 03:25:08;;;;;;;1999.90;999.90;;;20.00;99.90;;;;;;5207215;28;20022;-73
2022/09/04 03:27:40;;;;;;;1999.90;999.90;;;20.30;99.90;;;;;;5208246;28;20034;-73
2022/09/04 03:30:12;;;;;;;1999.90;999.90;;;20.30;99.90;;;;;;5208513;28;20128;-73
2022/09/04 03:32:43;;;;;;;1999.90;999.90;;;20.50;99.90;;;;;;5208130;28;20025;-73
2022/09/04 03:35:25;;;;;;;1999.90;999.90;;;20.30;99.90;;;;;;5207922;28;20029;-73
2022/09/04 03:38:29;;;;;;;1999.90;999.90;;;20.40;99.90;;;;;;5207855;28;20040;-73
2022/09/04 03:41:28;;;;;;;1999.90;999.90;;;20.40;99.90;;;;;;5163642;28;20045;-73
2022/09/04 03:44:21;;;;;;;1999.90;999.90;;;20.20;99.90;;;;;;5205168;28;20048;-76
2022/09/04 03:47:14;;;;;;;1999.90;999.90;;;20.00;99.90;;;;;;5207825;28;20398;-75
2022/09/04 03:50:15;;;;;;;1999.90;999.90;;;20.10;99.90;;;;;;5207562;28;20030;-75
2022/09/04 03:52:58;;;;;;;1999.90;999.90;;;20.10;99.90;;;;;;5207793;28;20021;-75
2022/09/04 03:56:05;;;;;;;1999.90;999.90;;;20.10;99.90;;;;;;5207758;28;20037;-75
2022/09/04 03:59:00;;;;;;;1999.90;999.90;;;20.20;99.90;;;;;;5207692;28;20060;-75
2022/09/04 04:02:05;;;;;;;1999.90;999.90;;;20.30;99.90;;;;;;5207652;28;20021;-75
2022/09/04 04:05:01;;;;;;;1999.90;999.90;;;20.20;99.90;;;;;;5207415;28;20032;-75
2022/09/04 04:07:46;;;;;;;1999.90;999.90;;;20.30;99.90;;;;;;5205920;28;20037;-75
2022/09/04 04:10:39;;;;;;;1999.90;999.90;;;20.30;99.90;;;;;;5207392;28;20033;-75
2022/09/04 04:13:30;;;;;;;1999.90;999.90;;;20.40;99.90;;;;;;5205870;28;20069;-75
2022/09/04 04:16:09;;;;;;;1999.90;999.90;;;20.40;99.90;;;;;;5207142;28;20033;-75
2022/09/04 04:19:18;;;;;;;1999.90;999.90;;;20.50;99.90;;;;;;5206027;28;20045;-75
2022/09/04 04:22:02;;;;;;;1999.90;999.90;;;20.50;99.90;;;;;;5176198;28;20041;-75
2022/09/04 04:25:04;;;;;;;1999.90;999.90;;;20.40;99.90;;;;;;5205760;28;20405;-75
2022/09/04 04:28:15;;;;;;;1999.90;999.90;;;20.40;99.90;;;;;;5207011;28;20029;-75
2022/09/04 04:30:53;;;;;;;1999.90;999.90;;;20.50;99.90;;;;;;5205699;28;20489;-75
2022/09/04 04:33:49;;;;;;;1999.90;999.90;;;20.50;99.90;;;;;;5206744;28;20033;-75
2022/09/04 04:36:36;;;;;;;1999.90;999.90;;;20.70;99.90;;;;;;5169162;28;20046;-75
2022/09/04 04:39:34;;;;;;;1999.90;999.90;;;20.80;99.90;;;;;;5206803;28;20473;-75
2022/09/04 04:42:32;;;;;;;1999.90;999.90;;;20.70;99.90;;;;;;5205431;28;20057;-75
2022/09/04 04:48:48;;;;;;;1999.90;999.90;;;21.00;99.90;;;;;;5206640;28;20091;-75
2022/09/04 04:51:41;;;;;;;1999.90;999.90;;;21.20;99.90;;;;;;5206544;28;20037;-75
2022/09/04 04:54:12;;;;;;;1999.90;999.90;;;21.20;99.90;;;;;;5206435;28;20030;-75
2022/09/04 04:57:27;;;;;;;1999.90;999.90;;;21.20;99.90;;;;;;5206454;28;20058;-75
2022/09/04 05:00:18;;;;;;;1999.90;999.90;;;21.30;99.90;;;;;;5206315;28;20108;-75
2022/09/04 05:03:00;;;;;;;1999.90;999.90;;;21.20;99.90;;;;;;5206302;28;20061;-75
2022/09/04 05:05:59;;;;;;;1999.90;999.90;;;21.20;99.90;;;;;;5206326;28;20048;-74
2022/09/04 05:08:46;;;;;;;1999.90;999.90;;;21.30;99.90;;;;;;5204914;28;20516;-74
2022/09/04 05:11:51;;;;;;;1999.90;999.90;;;21.40;99.90;;;;;;5205925;28;20033;-74
2022/09/04 05:14:47;;;;;;;1999.90;999.90;;;21.50;99.90;;;;;;5205070;28;20378;-74
2022/09/04 05:17:23;;;;;;;1999.90;999.90;;;21.30;99.90;;;;;;5206051;28;20022;-74
2022/09/04 05:20:26;;;;;;;1999.90;999.90;;;21.50;99.90;;;;;;5205951;28;20022;-75
2022/09/04 05:23:35;;;;;;;1999.90;999.90;;;21.60;99.90;;;;;;5205163;28;20095;-74
2022/09/04 05:26:16;;;;;;;1999.90;999.90;;;21.60;99.90;;;;;;5203589;28;20040;-71
2022/09/04 05:29:46;;;;;;;1999.90;999.90;;;21.80;99.90;;;;;;5205763;28;20115;-73
2022/09/04 05:32:28;;;;;;;1999.90;999.90;;;21.70;99.90;;;;;;5122540;29;20054;-74
2022/09/04 05:35:23;;;;;;;1999.90;999.90;;;21.80;99.90;;;;;;5122714;29;20026;-74
2022/09/04 05:38:18;;;;;;;1999.90;999.90;;;21.70;99.90;;;;;;5122665;29;20035;-71
2022/09/04 05:41:11;;;;;;;1999.90;999.90;;;21.80;99.90;;;;;;5122580;29;20459;-73
2022/09/04 05:43:57;;;;;;;1999.90;999.90;;;21.90;99.90;;;;;;5122332;29;20055;-74
2022/09/04 05:47:04;;;;;;;1999.90;999.90;;;22.00;99.90;;;;;;5121697;28;20019;-74
2022/09/04 05:49:59;;;;;;;1999.90;999.90;;;22.20;99.90;;;;;;5122520;29;20051;-74
2022/09/04 05:52:38;;;;;;;1999.90;999.90;;;22.00;99.90;;;;;;5122936;29;20031;-74
2022/09/04 05:55:30;;;;;;;1999.90;999.90;;;22.00;99.90;;;;;;5106486;29;20087;-74
2022/09/04 05:58:20;;;;;;;1999.90;999.90;;;22.00;99.90;;;;;;5122364;29;20035;-74
2022/09/04 06:01:11;;;;;;;1999.90;999.90;;;22.00;99.90;;;;;;5122245;29;20042;-75
2022/09/04 06:03:57;;;;;;;1999.90;999.90;;;22.10;99.90;;;;;;5197206;28;20036;-74
2022/09/04 06:06:31;;;;;;;1999.90;999.90;;;22.20;99.90;;;;;;5205204;28;20664;-73
2022/09/04 06:09:19;;;;;;;1999.90;999.90;;;22.20;99.90;;;;;;5204988;28;20048;-74
2022/09/04 06:12:34;;;;;;;1999.90;999.90;;;22.20;99.90;;;;;;5205051;28;20029;-73
2022/09/04 06:15:11;;;;;;;1999.90;999.90;;;22.30;99.90;;;;;;5179050;28;20052;-74
2022/09/04 06:17:47;;;;;;;1999.90;999.90;;;22.30;99.90;;;;;;5204984;28;20145;-74
2022/09/04 06:21:03;;;;;;;1999.90;999.90;;;22.30;99.90;;;;;;5205014;28;20030;-72
2022/09/04 06:23:40;;;;;;;1999.90;999.90;;;22.30;99.90;;;;;;5161170;28;20072;-74
2022/09/04 06:26:35;;;;;;;1999.90;999.90;;;22.30;99.90;;;;;;5205236;28;20096;-74
2022/09/04 06:29:32;;;;;;;1999.90;999.90;;;22.40;99.90;;;;;;5204988;28;20040;-71
2022/09/04 06:32:41;;;;;;;1999.90;999.90;;;22.30;99.90;;;;;;5204963;28;20075;-74
2022/09/04 06:35:39;;;;;;;1999.90;999.90;;;22.30;99.90;;;;;;5204886;28;20029;-72
2022/09/04 06:38:41;;;;;;;1999.90;999.90;;;22.40;99.90;;;;;;5205056;28;20643;-72
2022/09/04 06:41:27;;;;;;;1999.90;999.90;;;22.30;99.90;;;;;;5204670;28;20029;-75
2022/09/04 06:44:07;;;;;;;1999.90;999.90;;;22.20;99.90;;;;;;5205003;28;20041;-71
2022/09/04 06:46:47;;;;;;;1999.90;999.90;;;22.30;99.90;;;;;;5204967;28;20026;-72
2022/09/04 06:49:36;;;;;;;1999.90;999.90;;;22.30;99.90;;;;;;5203570;28;20045;-71
2022/09/04 06:52:46;;;;;;;1999.90;999.90;;;22.20;99.90;;;;;;5204792;28;20108;-72
2022/09/04 06:55:48;;;;;;;1999.90;999.90;;;22.20;99.90;;;;;;5154214;28;20041;-73
2022/09/04 06:58:45;;;;;;;1999.90;999.90;;;22.10;99.90;;;;;;5207307;28;20029;-73
2022/09/04 07:01:28;;;;;;;1999.90;999.90;;;22.10;99.90;;;;;;5204867;28;20038;-74
2022/09/04 07:04:32;;;;;;;1999.90;999.90;;;21.80;99.90;;;;;;5208596;28;20059;-73
2022/09/04 07:07:30;;;;;;;1999.90;999.90;;;21.80;99.90;;;;;;5208587;28;20079;-73
2022/09/04 07:10:14;;;;;;;1999.90;999.90;;;21.80;99.90;;;;;;5207207;28;20151;-73
2022/09/04 07:12:47;;;;;;;1999.90;999.90;;;21.80;99.90;;;;;;5206877;28;20036;-73
2022/09/04 07:15:27;;;;;;;1999.90;999.90;;;21.90;99.90;;;;;;5208298;28;20034;-74
2022/09/04 07:18:11;;;;;;;1999.90;999.90;;;21.80;99.90;;;;;;5207073;28;20033;-74
2022/09/04 07:21:14;;;;;;;1999.90;999.90;;;21.80;99.90;;;;;;5208342;28;20026;-73
2022/09/04 07:24:10;;;;;;;1999.90;999.90;;;21.90;99.90;;;;;;5206466;28;20481;-74
2022/09/04 07:26:50;;;;;;;1999.90;999.90;;;21.70;99.90;;;;;;5208355;28;20025;-71
2022/09/04 07:29:30;;;;;;;1999.90;999.90;;;21.80;99.90;;;;;;5207994;28;20037;-74
2022/09/04 07:32:19;;;;;;;1999.90;999.90;;;21.40;99.90;;;;;;5206732;28;20473;-75
2022/09/04 07:35:12;;;;;;;1999.90;999.90;;;21.40;99.90;;;;;;5207923;28;20041;-75
2022/09/04 07:38:06;;;;;;;1999.90;999.90;;;21.50;99.90;;;;;;5208084;28;20052;-75
2022/09/04 07:40:50;;;;;;;1999.90;999.90;;;21.00;99.90;;;;;;5206650;28;20179;-74
2022/09/04 07:43:32;;;;;;;1999.90;999.90;;;21.10;99.90;;;;;;5207692;28;20041;-74
2022/09/04 07:46:24;;;;;;;1999.90;999.90;;;21.00;99.90;;;;;;5207845;28;20032;-74
2022/09/04 07:49:22;;;;;;;1999.90;999.90;;;21.00;99.90;;;;;;5206336;28;20041;-72
2022/09/04 07:52:10;;;;;;;1999.90;999.90;;;20.90;99.90;;;;;;5196949;28;20091;-73
2022/09/04 07:55:04;;;;;;;1999.90;999.90;;;20.80;99.90;;;;;;5207683;28;20036;-73
2022/09/04 07:58:02;;;;;;;1999.90;999.90;;;20.80;99.90;;;;;;5196813;28;20068;-73
2022/09/04 08:00:55;;;;;;;1999.90;999.90;;;20.60;99.90;;;;;;5207632;28;20033;-72
2022/09/04 08:03:44;;;;;;;1999.90;999.90;;;20.70;99.90;;;;;;5207356;28;20389;-73
2022/09/04 08:06:28;;;;;;;1999.90;999.90;;;20.80;99.90;;;;;;5207405;28;20049;-72
2022/09/04 08:09:32;;;;;;;1999.90;999.90;;;20.60;99.90;;;;;;5206503;28;20048;-71
2022/09/04 08:12:16;;;;;;;1999.90;999.90;;;20.60;99.90;;;;;;5207566;28;20021;-73
2022/09/04 08:14:47;;;;;;;1999.90;999.90;;;20.60;99.90;;;;;;5207516;28;20037;-72
2022/09/04 08:17:44;;;;;;;1999.90;999.90;;;20.70;99.90;;;;;;5207363;28;20024;-72
2022/09/04 08:20:52;;;;;;;1999.90;999.90;;;20.50;99.90;;;;;;5156148;28;20385;-73
2022/09/04 08:23:42;;;;;;;1999.90;999.90;;;20.70;99.90;;;;;;5205867;28;20029;-72
2022/09/04 08:26:39;;;;;;;1999.90;999.90;;;20.80;99.90;;;;;;5205724;28;20025;-73
2022/09/04 08:29:38;;;;;;;1999.90;999.90;;;21.10;99.90;;;;;;5206757;28;20037;-72
2022/09/04 08:32:43;;;;;;;1999.90;999.90;;;20.80;99.90;;;;;;5189201;28;20038;-72
2022/09/04 08:35:51;;;;;;;1999.90;999.90;;;20.90;99.90;;;;;;5206821;28;20033;-72
2022/09/04 08:38:38;;;;;;;1999.90;999.90;;;21.00;99.90;;;;;;5206852;28;20025;-73
2022/09/04 08:41:47;;;;;;;1999.90;999.90;;;21.20;99.90;;;;;;5206477;28;20040;-72
2022/09/04 08:44:17;;;;;;;1999.90;999.90;;;21.10;99.90;;;;;;5206857;28;20037;-72
2022/09/04 08:47:34;;;;;;;1999.90;999.90;;;21.10;99.90;;;;;;5206802;28;20354;-73
2022/09/04 08:50:33;;;;;;;1999.90;999.90;;;21.20;99.90;;;;;;5206780;28;20041;-72
2022/09/04 08:53:31;;;;;;;1999.90;999.90;;;21.10;99.90;;;;;;5206724;28;20036;-73
2022/09/04 08:56:41;;;;;;;1999.90;999.90;;;21.10;99.90;;;;;;5206441;28;20037;-72
2022/09/04 08:59:30;;;;;;;1999.90;999.90;;;21.20;99.90;;;;;;5176322;28;20037;-72
2022/09/04 09:02:25;;;;;;;1999.90;999.90;;;21.30;99.90;;;;;;5206395;28;20029;-72
2022/09/04 09:05:09;;;;;;;1999.90;999.90;;;21.20;99.90;;;;;;5206361;28;20029;-72
2022/09/04 09:08:05;;;;;;;1999.90;999.90;;;21.20;99.90;;;;;;5204911;28;20032;-72
2022/09/04 09:11:10;;;;;;;1999.90;999.90;;;21.10;99.90;;;;;;5206477;28;20022;-72
2022/09/04 09:14:05;;;;;;;1999.90;999.90;;;21.00;99.90;;;;;;5206070;28;20493;-71
2022/09/04 09:17:01;;;;;;;1999.90;999.90;;;21.00;99.90;;;;;;5206099;28;20100;-72
2022/09/04 09:19:38;;;;;;;1999.90;999.90;;;21.00;99.90;;;;;;5206027;28;20032;-72
2022/09/04 09:22:21;;;;;;;1999.90;999.90;;;21.00;99.90;;;;;;5206562;28;20492;-72
2022/09/04 09:25:15;;;;;;;1999.90;999.90;;;21.00;99.90;;;;;;5205994;28;20029;-72
2022/09/04 09:28:27;;;;;;;1999.90;999.90;;;21.10;99.90;;;;;;5205583;28;20017;-72
2022/09/04 09:31:15;;;;;;;1999.90;999.90;;;21.00;99.90;;;;;;5122640;29;20038;-72
2022/09/04 09:34:10;;;;;;;1999.90;999.90;;;21.20;99.90;;;;;;5204859;28;20034;-72
2022/09/04 09:37:11;;;;;;;1999.90;999.90;;;21.20;99.90;;;;;;5205751;28;20029;-72
2022/09/04 09:40:10;;;;;;;1999.90;999.90;;;21.30;99.90;;;;;;5205731;28;20659;-72
2022/09/04 09:42:55;;;;;;;1999.90;999.90;;;21.20;99.90;;;;;;5205208;28;20057;-72
2022/09/04 09:45:45;;;;;;;1999.90;999.90;;;21.40;99.90;;;;;;5204255;28;20278;-72
2022/09/04 09:48:34;;;;;;;1999.90;999.90;;;21.40;99.90;;;;;;5205726;28;20022;-72
2022/09/04 09:51:13;;;;;;;1999.90;999.90;;;21.40;99.90;;;;;;5205398;28;20437;-72
2022/09/04 09:54:22;;;;;;;1999.90;999.90;;;21.40;99.90;;;;;;5204269;28;20029;-73
2022/09/04 09:57:20;;;;;;;1999.90;999.90;;;21.40;99.90;;;;;;5205239;28;20026;-73
2022/09/04 10:00:05;;;;;;;1999.90;999.90;;;21.50;99.90;;;;;;5205400;28;20029;-73
2022/09/04 10:03:33;;;;;;;1999.90;999.90;;;21.60;99.90;;;;;;5204017;28;20100;-73
2022/09/04 10:06:40;;;;;;;1999.90;999.90;;;21.50;99.90;;;;;;5149891;28;20135;-73
2022/09/04 10:09:45;;;;;;;1999.90;999.90;;;21.40;99.90;;;;;;5204930;28;20041;-73
2022/09/04 10:12:39;;;;;;;1999.90;999.90;;;21.60;99.90;;;;;;5203542;28;20436;-73
2022/09/04 10:15:13;;;;;;;1999.90;999.90;;;21.50;99.90;;;;;;5203924;28;20064;-73
2022/09/04 10:17:56;;;;;;;1999.90;999.90;;;21.60;99.90;;;;;;5205020;28;20021;-73
2022/09/04 10:20:58;;;;;;;1999.90;999.90;;;21.50;99.90;;;;;;5203819;28;20030;-73
2022/09/04 10:24:05;;;;;;;1999.90;999.90;;;21.30;99.90;;;;;;5203798;28;20049;-73
2022/09/04 10:27:00;;;;;;;1999.90;999.90;;;21.30;99.90;;;;;;5205123;28;20033;-72
2022/09/04 10:29:35;;;;;;;1999.90;999.90;;;21.20;99.90;;;;;;5205380;28;20113;-73
2022/09/04 10:32:33;;;;;;;1999.90;999.90;;;21.10;99.90;;;;;;5206176;28;20075;-72
2022/09/04 10:35:13;;;;;;;1999.90;999.90;;;21.00;99.90;;;;;;5209268;28;20508;-72
2022/09/04 10:37:54;;;;;;;1999.90;999.90;;;21.00;99.90;;;;;;5209185;28;20086;-72
2022/09/04 10:40:50;;;;;;;1999.90;999.90;;;21.20;99.90;;;;;;5209143;28;20033;-72
2022/09/04 10:43:26;;;;;;;1999.90;999.90;;;21.00;99.90;;;;;;5208601;28;20523;-72
2022/09/04 10:46:08;;;;;;;1999.90;999.90;;;20.80;99.90;;;;;;5208685;28;20029;-73
2022/09/04 10:49:06;;;;;;;1999.90;999.90;;;21.00;99.90;;;;;;5208723;28;20026;-73
2022/09/04 10:52:05;;;;;;;1999.90;999.90;;;21.00;99.90;;;;;;5208903;28;20612;-72
2022/09/04 10:55:25;;;;;;;1999.90;999.90;;;20.90;99.90;;;;;;5208823;28;20021;-72
2022/09/04 10:58:01;;;;;;;1999.90;999.90;;;20.90;99.90;;;;;;5208765;28;20022;-73
2022/09/04 11:01:04;;;;;;;1999.90;999.90;;;20.90;99.90;;;;;;5208543;28;20029;-73
2022/09/04 11:04:00;;;;;;;1999.90;999.90;;;20.80;99.90;;;;;;5207463;28;20104;-72
2022/09/04 11:07:02;;;;;;;1999.90;999.90;;;20.90;99.90;;;;;;5208653;28;20057;-72
2022/09/04 11:09:44;;;;;;;1999.90;999.90;;;20.70;99.90;;;;;;5208255;28;20056;-73
2022/09/04 11:12:24;;;;;;;1999.90;999.90;;;20.80;99.90;;;;;;5208351;28;20025;-73
2022/09/04 11:15:23;;;;;;;1999.90;999.90;;;20.90;99.90;;;;;;5208416;28;20026;-73
2022/09/04 11:18:36;;;;;;;1999.90;999.90;;;20.90;99.90;;;;;;5171415;28;20499;-73
2022/09/04 11:21:55;;;;;;;1999.90;999.90;;;20.80;99.90;;;;;;5170063;28;20508;-73
2022/09/04 11:25:05;;;;;;;1999.90;999.90;;;20.80;99.90;;;;;;5147437;28;20052;-73
2022/09/04 11:27:58;;;;;;;1999.90;999.90;;;21.00;99.90;;;;;;5208467;28;20025;-72
2022/09/04 11:31:09;;;;;;;1999.90;999.90;;;20.70;99.90;;;;;;5207290;28;20038;-72
2022/09/04 11:33:49;;;;;;;1999.90;999.90;;;20.90;99.90;;;;;;5208143;28;20469;-72
2022/09/04 11:37:07;;;;;;;1999.90;999.90;;;20.80;99.90;;;;;;5208057;28;20108;-71
2022/09/04 11:40:08;;;;;;;1999.90;999.90;;;20.90;99.90;;;;;;5208252;28;20045;-72
2022/09/04 11:42:42;;;;;;;1999.90;999.90;;;20.90;99.90;;;;;;5207870;28;20507;-72
2022/09/04 11:45:40;;;;;;;1999.90;999.90;;;20.80;99.90;;;;;;5206851;28;20373;-72
2022/09/04 11:48:16;;;;;;;1999.90;999.90;;;21.00;99.90;;;;;;5207597;28;20125;-72
2022/09/04 11:51:25;;;;;;;1999.90;999.90;;;20.90;99.90;;;;;;5207740;28;20199;-72
2022/09/04 11:54:19;;;;;;;1999.90;999.90;;;20.80;99.90;;;;;;5207722;28;20052;-72
2022/09/04 11:56:53;;;;;;;1999.90;999.90;;;20.70;99.90;;;;;;5207604;28;20104;-72
2022/09/04 11:59:56;;;;;;;1999.90;999.90;;;20.60;99.90;;;;;;5206243;28;20120;-72
2022/09/04 12:02:48;;;;;;;1999.90;999.90;;;20.90;99.90;;;;;;5207512;28;20130;-73
2022/09/04 12:05:49;;;;;;;1999.90;999.90;;;20.90;99.90;;;;;;5207450;28;20035;-72
2022/09/04 12:08:23;;;;;;;1999.90;999.90;;;20.80;99.90;;;;;;5167246;28;20100;-72
2022/09/04 12:11:05;;;;;;;1999.90;999.90;;;20.80;99.90;;;;;;5207215;28;20022;-71
2022/09/04 12:14:07;;;;;;;1999.90;999.90;;;20.70;99.90;;;;;;5207316;28;20083;-72
2022/09/04 12:16:49;;;;;;;1999.90;999.90;;;20.90;99.90;;;;;;5190571;28;20498;-72
2022/09/04 12:19:49;;;;;;;1999.90;999.90;;;20.80;99.90;;;;;;5206057;28;21115;-72
2022/09/04 12:22:35;;;;;;;1999.90;999.90;;;20.90;99.90;;;;;;5207233;28;20029;-72
2022/09/04 12:25:34;;;;;;;1999.90;999.90;;;20.90;99.90;;;;;;5207146;28;20095;-72
2022/09/04 12:28:15;;;;;;;1999.90;999.90;;;20.90;99.90;;;;;;5207030;28;20025;-72
2022/09/04 12:30:54;;;;;;;1999.90;999.90;;;20.90;99.90;;;;;;5206736;28;20033;-72
2022/09/04 12:34:06;;;;;;;1999.90;999.90;;;21.10;99.90;;;;;;5206898;28;20361;-72
2022/09/04 12:37:18;;;;;;;1999.90;999.90;;;21.20;99.90;;;;;;5123932;29;20447;-73
2022/09/04 12:40:20;;;;;;;1999.90;999.90;;;21.20;99.90;;;;;;5206873;28;20033;-72
2022/09/04 12:43:08;;;;;;;1999.90;999.90;;;21.20;99.90;;;;;;5206771;28;20425;-73
2022/09/04 12:45:53;;;;;;;1999.90;999.90;;;21.30;99.90;;;;;;5206954;28;20036;-72
2022/09/04 12:48:53;;;;;;;1999.90;999.90;;;21.30;99.90;;;;;;5206585;28;20042;-73
2022/09/04 12:51:34;;;;;;;1999.90;999.90;;;21.30;99.90;;;;;;5206844;28;20030;-73
2022/09/04 12:54:14;;;;;;;1999.90;999.90;;;21.30;99.90;;;;;;5206779;28;20033;-73
2022/09/04 12:56:50;;;;;;;1999.90;999.90;;;21.40;99.90;;;;;;5206293;28;20469;-72
2022/09/04 12:59:47;;;;;;;1999.90;999.90;;;21.40;99.90;;;;;;5206339;28;20044;-73
2022/09/04 13:02:57;;;;;;;1999.90;999.90;;;21.40;99.90;;;;;;5206401;28;20437;-72
2022/09/04 13:06:02;;;;;;;1999.90;999.90;;;21.30;99.90;;;;;;5206266;28;20033;-74
2022/09/04 13:08:42;;;;;;;1999.90;999.90;;;21.30;99.90;;;;;;5193369;28;20049;-73
2022/09/04 13:11:39;;;;;;;1999.90;999.90;;;21.30;99.90;;;;;;5205866;28;20501;-72
2022/09/04 13:14:46;;;;;;;1999.90;999.90;;;21.20;99.90;;;;;;5164990;28;20401;-72
2022/09/04 13:17:23;;;;;;;1999.90;999.90;;;21.30;99.90;;;;;;5206235;28;20017;-72
2022/09/04 13:20:19;;;;;;;1999.90;999.90;;;21.30;99.90;;;;;;5205955;28;20091;-72
2022/09/04 13:23:13;;;;;;;1999.90;999.90;;;21.20;99.90;;;;;;5206025;28;20439;-73
2022/09/04 13:25:52;;;;;;;1999.90;999.90;;;21.20;99.90;;;;;;5205894;28;20036;-74
2022/09/04 13:28:34;;;;;;;1999.90;999.90;;;21.10;99.90;;;;;;5204608;28;20477;-73
2022/09/04 13:31:13;;;;;;;1999.90;999.90;;;21.30;99.90;;;;;;5205827;28;20116;-73
2022/09/04 13:34:09;;;;;;;1999.90;999.90;;;21.20;99.90;;;;;;5205833;28;20025;-72
2022/09/04 13:37:08;;;;;;;1999.90;999.90;;;21.00;99.90;;;;;;5205757;28;20034;-73
2022/09/04 13:39:59;;;;;;;1999.90;999.90;;;21.10;99.90;;;;;;5204312;28;20052;-72
2022/09/04 13:42:45;;;;;;;1999.90;999.90;;;21.10;99.90;;;;;;5204960;28;20049;-72
2022/09/04 13:45:27;;;;;;;1999.90;999.90;;;21.20;99.90;;;;;;5205588;28;20039;-73
2022/09/04 13:48:05;;;;;;;1999.90;999.90;;;20.90;99.90;;;;;;5205463;28;20025;-71
2022/09/04 13:50:45;;;;;;;1999.90;999.90;;;21.10;99.90;;;;;;5205605;28;20431;-73
2022/09/04 13:53:34;;;;;;;1999.90;999.90;;;21.10;99.90;;;;;;5205655;28;20060;-73
2022/09/04 13:56:12;;;;;;;1999.90;999.90;;;21.00;99.90;;;;;;5205570;28;20029;-72
2022/09/04 13:58:50;;;;;;;1999.90;999.90;;;21.00;99.90;;;;;;5205898;28;20029;-72
2022/09/04 14:01:28;;;;;;;1999.90;999.90;;;21.00;99.90;;;;;;5205723;28;20017;-73